Time;durP1;ratioP1;P1;durP2;ratioP2;P2;SDS_P1;SDS_P2;PMS_P1;PMS_P2;Temp;Humidity;BMP_temperature;BMP_pressure;BME280_temperature;BME280_humidity;BME280_pressure;Samples;Min_cycle;Max_cycle;Signal;HPM_P1;HPM_P2
2022/05/18 00:00:27;;;;;;;5.35;4.10;;;18.90;99.90;;;;;;5052434;28;20131;-45
2022/05/18 00:02:58;;;;;;;7.68;4.55;;;18.80;99.90;;;;;;5052366;28;20025;-47
2022/05/18 00:05:23;;;;;;;9.45;4.70;;;18.80;99.90;;;;;;5052573;28;20022;-49
2022/05/18 00:07:49;;;;;;;6.25;4.45;;;18.60;99.90;;;;;;5051992;28;20027;-52
2022/05/18 00:10:15;;;;;;;6.63;4.70;;;18.60;99.90;;;;;;5052253;28;20523;-50
2022/05/18 00:12:48;;;;;;;8.18;4.40;;;18.60;99.90;;;;;;5052188;28;20098;-48
2022/05/18 00:15:16;;;;;;;7.45;3.90;;;18.60;99.90;;;;;;5052052;28;20029;-49
2022/05/18 00:17:42;;;;;;;9.05;4.80;;;18.50;99.90;;;;;;5049663;28;20028;-51
2022/05/18 00:20:09;;;;;;;7.50;4.20;;;18.50;99.90;;;;;;5051933;28;20035;-53
2022/05/18 00:22:47;;;;;;;6.72;4.80;;;18.50;99.90;;;;;;5052060;28;20035;-49
2022/05/18 00:25:13;;;;;;;6.05;4.03;;;18.40;99.90;;;;;;5051946;28;20027;-49
2022/05/18 00:27:38;;;;;;;6.35;4.40;;;18.40;99.90;;;;;;5051685;28;20105;-48
2022/05/18 00:30:05;;;;;;;8.88;4.60;;;18.40;99.90;;;;;;5051864;28;20028;-51
2022/05/18 00:32:31;;;;;;;7.28;4.32;;;18.30;99.90;;;;;;5052285;28;20404;-51
2022/05/18 00:34:56;;;;;;;6.28;4.57;;;18.40;99.90;;;;;;5051564;28;20029;-47
2022/05/18 00:37:22;;;;;;;4.57;3.92;;;18.30;99.90;;;;;;5051811;28;20024;-50
2022/05/18 00:39:47;;;;;;;6.60;4.80;;;18.10;99.90;;;;;;5051665;28;20047;-49
2022/05/18 00:42:20;;;;;;;7.68;4.50;;;18.10;99.90;;;;;;5051715;28;20500;-52
2022/05/18 00:44:46;;;;;;;6.05;4.47;;;18.00;99.90;;;;;;5051891;28;20024;-48
2022/05/18 00:47:12;;;;;;;9.30;4.70;;;18.10;99.90;;;;;;5051445;28;20401;-49
2022/05/18 00:49:38;;;;;;;4.85;4.38;;;18.00;99.90;;;;;;5051631;28;20036;-50
2022/05/18 00:52:06;;;;;;;7.85;3.90;;;18.00;99.90;;;;;;5051547;28;20060;-47
2022/05/18 00:54:34;;;;;;;9.25;4.50;;;18.00;99.90;;;;;;5051616;28;20025;-49
2022/05/18 00:57:09;;;;;;;5.13;4.47;;;18.00;99.90;;;;;;5051161;28;20108;-47
2022/05/18 00:59:48;;;;;;;4.80;4.30;;;18.10;99.90;;;;;;5051592;28;20052;-52
2022/05/18 01:02:15;;;;;;;10.38;4.32;;;18.20;99.90;;;;;;5051405;28;20028;-49
2022/05/18 01:04:44;;;;;;;9.20;4.60;;;18.10;99.90;;;;;;5051563;28;20021;-46
2022/05/18 01:07:19;;;;;;;7.13;4.95;;;18.10;99.90;;;;;;5051443;28;20041;-47
2022/05/18 01:09:47;;;;;;;6.05;4.95;;;18.00;99.90;;;;;;5050777;28;20029;-47
2022/05/18 01:12:19;;;;;;;7.78;4.50;;;17.90;99.90;;;;;;5052496;28;20027;-48
2022/05/18 01:14:49;;;;;;;4.97;4.25;;;17.90;99.90;;;;;;5052106;28;20036;-45
2022/05/18 01:17:18;;;;;;;7.43;4.70;;;17.90;99.90;;;;;;5051538;28;20033;-49
2022/05/18 01:19:50;;;;;;;6.20;5.15;;;17.90;99.90;;;;;;5051397;28;20037;-47
2022/05/18 01:22:41;;;;;;;7.43;5.03;;;17.80;99.90;;;;;;5051685;28;20436;-48
2022/05/18 01:25:12;;;;;;;5.32;4.30;;;17.80;99.90;;;;;;5051364;28;20025;-51
2022/05/18 01:27:38;;;;;;;5.63;5.03;;;17.80;99.90;;;;;;5051000;28;20033;-50
2022/05/18 01:30:05;;;;;;;7.07;5.00;;;17.80;99.90;;;;;;5054898;28;20033;-49
2022/05/18 01:32:45;;;;;;;7.35;5.03;;;17.80;99.90;;;;;;5055402;28;20059;-42
2022/05/18 01:35:13;;;;;;;6.05;4.70;;;17.80;99.90;;;;;;5054841;28;20033;-47
2022/05/18 01:37:39;;;;;;;8.70;4.72;;;17.70;99.90;;;;;;5054708;28;20032;-48
2022/05/18 01:40:13;;;;;;;8.77;5.15;;;17.70;99.90;;;;;;5055065;28;20021;-49
2022/05/18 01:42:48;;;;;;;9.00;5.32;;;17.50;99.90;;;;;;5055158;28;20385;-50
2022/05/18 01:45:15;;;;;;;7.43;4.90;;;17.50;99.90;;;;;;5055078;28;20020;-47
2022/05/18 01:47:41;;;;;;;12.50;5.63;;;17.50;99.90;;;;;;5054886;28;20025;-45
2022/05/18 01:50:14;;;;;;;12.18;5.63;;;17.50;99.90;;;;;;5054793;28;20393;-48
2022/05/18 01:52:40;;;;;;;9.80;5.00;;;17.50;99.90;;;;;;5055017;28;20032;-49
2022/05/18 01:55:06;;;;;;;8.68;5.70;;;17.60;99.90;;;;;;5054872;28;20033;-51
2022/05/18 01:57:36;;;;;;;7.60;5.13;;;17.60;99.90;;;;;;5054439;28;20032;-47
2022/05/18 02:00:05;;;;;;;7.18;5.35;;;17.50;99.90;;;;;;5054725;28;20017;-46
2022/05/18 02:02:30;;;;;;;11.70;5.85;;;17.40;99.90;;;;;;5054608;28;20025;-50
2022/05/18 02:04:56;;;;;;;12.30;5.53;;;17.40;99.90;;;;;;5054718;28;20017;-47
2022/05/18 02:07:21;;;;;;;7.00;5.25;;;17.50;99.90;;;;;;5054186;28;20044;-47
2022/05/18 02:09:47;;;;;;;11.68;6.32;;;17.50;99.90;;;;;;5054426;28;20420;-43
2022/05/18 02:12:13;;;;;;;8.75;5.80;;;17.50;99.90;;;;;;5053223;28;20024;-48
2022/05/18 02:14:38;;;;;;;9.25;6.68;;;17.50;99.90;;;;;;5054648;28;20048;-50
2022/05/18 02:17:04;;;;;;;7.18;5.65;;;17.40;99.90;;;;;;5052698;28;20354;-50
2022/05/18 02:19:29;;;;;;;7.75;5.55;;;17.40;99.90;;;;;;5054368;28;20584;-49
2022/05/18 02:21:55;;;;;;;10.13;6.03;;;17.30;99.90;;;;;;5054357;28;20025;-48
2022/05/18 02:24:21;;;;;;;7.55;6.07;;;17.30;99.90;;;;;;5054325;28;20063;-52
2022/05/18 02:26:46;;;;;;;12.15;6.38;;;17.30;99.90;;;;;;5054134;28;20036;-46
2022/05/18 02:29:12;;;;;;;10.98;5.85;;;17.30;99.90;;;;;;5053974;28;20033;-47
2022/05/18 02:31:38;;;;;;;6.00;5.40;;;17.30;99.90;;;;;;5054375;28;20150;-49
2022/05/18 02:34:04;;;;;;;13.57;6.78;;;17.30;99.90;;;;;;5054243;28;20040;-47
2022/05/18 02:36:30;;;;;;;11.05;6.28;;;17.20;99.90;;;;;;5054386;28;20083;-53
2022/05/18 02:38:55;;;;;;;8.20;6.80;;;17.20;99.90;;;;;;5053868;28;20067;-48
2022/05/18 02:41:21;;;;;;;9.02;6.32;;;17.10;99.90;;;;;;5053037;28;20122;-52
2022/05/18 02:43:46;;;;;;;9.30;5.90;;;17.20;99.90;;;;;;5053834;28;20086;-43
2022/05/18 02:46:20;;;;;;;14.68;6.00;;;17.10;99.90;;;;;;5053978;28;20480;-49
2022/05/18 02:48:46;;;;;;;8.57;6.13;;;17.10;99.90;;;;;;5053580;28;20021;-50
2022/05/18 02:51:14;;;;;;;8.95;6.57;;;17.10;99.90;;;;;;5053760;28;20025;-50
2022/05/18 02:53:39;;;;;;;6.60;5.78;;;17.00;99.90;;;;;;5053757;28;20033;-49
2022/05/18 02:56:07;;;;;;;8.27;5.60;;;17.00;99.90;;;;;;5053436;28;20032;-50
2022/05/18 02:58:38;;;;;;;11.55;6.22;;;16.90;99.90;;;;;;5053455;28;20017;-46
2022/05/18 03:01:09;;;;;;;8.90;6.30;;;16.90;99.90;;;;;;5053650;28;20025;-50
2022/05/18 03:03:36;;;;;;;8.85;6.10;;;17.00;99.90;;;;;;5053691;28;20412;-47
2022/05/18 03:06:03;;;;;;;6.38;5.70;;;16.90;99.90;;;;;;5053540;28;20117;-44
2022/05/18 03:08:30;;;;;;;7.82;5.88;;;16.90;99.90;;;;;;5053157;28;20021;-48
2022/05/18 03:10:56;;;;;;;8.20;5.47;;;16.80;99.90;;;;;;5053487;28;20057;-50
2022/05/18 03:13:21;;;;;;;7.53;5.90;;;16.80;99.90;;;;;;5053380;28;20036;-52
2022/05/18 03:15:47;;;;;;;17.17;6.93;;;16.80;99.90;;;;;;5053243;28;20028;-48
2022/05/18 03:18:16;;;;;;;8.52;6.20;;;16.80;99.90;;;;;;5053105;28;20106;-44
2022/05/18 03:23:33;;;;;;;9.63;5.40;;;16.80;99.90;;;;;;5053533;28;20044;-50
2022/05/18 03:26:01;;;;;;;6.82;5.13;;;16.80;99.90;;;;;;5053046;28;20025;-49
2022/05/18 03:28:27;;;;;;;8.57;5.88;;;16.80;99.90;;;;;;5053314;28;20549;-49
2022/05/18 03:30:52;;;;;;;7.60;5.05;;;16.80;99.90;;;;;;5053124;28;20037;-50
2022/05/18 03:33:18;;;;;;;6.63;5.97;;;16.80;99.90;;;;;;5052609;28;20471;-48
2022/05/18 03:35:46;;;;;;;7.35;4.88;;;16.80;99.90;;;;;;5052592;28;20033;-44
2022/05/18 03:38:11;;;;;;;6.15;5.28;;;16.80;99.90;;;;;;5052689;28;20138;-48
2022/05/18 03:40:38;;;;;;;6.63;4.80;;;16.70;99.90;;;;;;5052729;28;20038;-49
2022/05/18 03:43:05;;;;;;;6.55;4.78;;;16.70;99.90;;;;;;5052948;28;20047;-51
2022/05/18 03:45:33;;;;;;;9.57;5.53;;;16.60;99.90;;;;;;5053155;28;20022;-47
2022/05/18 03:47:59;;;;;;;6.45;4.85;;;16.60;99.90;;;;;;5052633;28;20033;-48
2022/05/18 03:50:24;;;;;;;5.35;4.85;;;16.50;99.90;;;;;;5052591;28;20028;-48
2022/05/18 03:52:50;;;;;;;6.05;5.40;;;16.50;99.90;;;;;;5052667;28;20027;-47
2022/05/18 03:55:15;;;;;;;6.95;4.68;;;16.50;99.90;;;;;;5052691;28;20029;-49
2022/05/18 03:57:41;;;;;;;7.70;5.30;;;16.50;99.90;;;;;;5052431;28;20075;-45
2022/05/18 04:00:07;;;;;;;11.13;6.10;;;16.50;99.90;;;;;;5053664;28;20104;-47
2022/05/18 04:02:34;;;;;;;6.22;4.68;;;16.50;99.90;;;;;;5053078;28;20023;-48
2022/05/18 04:04:59;;;;;;;6.03;4.88;;;16.50;99.90;;;;;;5053027;28;20021;-47
2022/05/18 04:07:25;;;;;;;7.50;5.68;;;16.50;99.90;;;;;;5052475;28;20028;-47
2022/05/18 04:09:50;;;;;;;8.75;5.30;;;16.40;99.90;;;;;;5052181;28;20036;-50
2022/05/18 04:12:16;;;;;;;14.35;5.70;;;16.40;99.90;;;;;;5052319;28;20053;-49
2022/05/18 04:14:41;;;;;;;13.93;5.78;;;16.40;99.90;;;;;;5052118;28;20331;-49
2022/05/18 04:17:07;;;;;;;6.90;4.68;;;16.30;99.90;;;;;;5051671;28;20067;-45
2022/05/18 04:19:32;;;;;;;8.50;4.97;;;16.30;99.90;;;;;;5051857;28;20032;-51
2022/05/18 04:21:58;;;;;;;8.77;6.10;;;16.30;99.90;;;;;;5052087;28;20032;-48
2022/05/18 04:24:23;;;;;;;7.57;5.75;;;16.40;99.90;;;;;;5052073;28;20028;-49
2022/05/18 04:26:49;;;;;;;8.38;6.50;;;16.50;99.90;;;;;;5051648;28;20086;-47
2022/05/18 04:29:14;;;;;;;9.57;6.80;;;16.70;99.90;;;;;;5051725;28;20481;-46
2022/05/18 04:31:41;;;;;;;14.63;6.72;;;16.90;99.90;;;;;;5051837;28;20048;-47
2022/05/18 04:34:06;;;;;;;10.02;6.65;;;17.00;99.90;;;;;;5051583;28;20025;-47
2022/05/18 04:36:32;;;;;;;11.50;6.57;;;17.00;99.90;;;;;;5050399;28;20025;-51
2022/05/18 04:38:57;;;;;;;10.32;6.05;;;17.00;99.90;;;;;;5051517;28;20032;-50
2022/05/18 04:41:23;;;;;;;10.05;6.07;;;17.00;99.90;;;;;;5051699;28;20037;-49
2022/05/18 04:43:49;;;;;;;9.65;5.88;;;17.00;99.90;;;;;;5051711;28;20103;-49
2022/05/18 04:46:14;;;;;;;8.60;6.40;;;17.00;99.90;;;;;;5051555;28;20553;-46
2022/05/18 04:48:41;;;;;;;7.65;6.05;;;17.10;99.90;;;;;;5051264;28;20032;-51
2022/05/18 04:51:06;;;;;;;8.55;6.55;;;17.10;99.90;;;;;;5051782;28;20049;-44
2022/05/18 04:53:36;;;;;;;10.85;6.50;;;17.10;99.90;;;;;;5050193;28;20052;-52
2022/05/18 04:56:03;;;;;;;7.97;6.60;;;17.20;99.90;;;;;;5051480;28;20054;-46
2022/05/18 04:58:29;;;;;;;11.00;6.50;;;17.30;99.90;;;;;;5051356;28;20024;-47
2022/05/18 05:01:04;;;;;;;8.32;6.72;;;17.50;99.90;;;;;;5051527;28;20484;-50
2022/05/18 05:03:30;;;;;;;11.77;7.35;;;17.50;99.90;;;;;;5051416;28;20151;-47
2022/05/18 05:05:55;;;;;;;8.00;6.35;;;17.40;99.90;;;;;;5051597;28;20500;-49
2022/05/18 05:08:21;;;;;;;10.25;6.75;;;17.40;99.90;;;;;;5051341;28;20025;-55
2022/05/18 05:10:47;;;;;;;9.32;6.18;;;17.40;99.90;;;;;;5051417;28;20025;-47
2022/05/18 05:13:12;;;;;;;10.07;7.65;;;17.40;99.90;;;;;;5051305;28;20017;-49
2022/05/18 05:15:38;;;;;;;11.68;6.15;;;17.50;99.90;;;;;;5051390;28;20503;-48
2022/05/18 05:18:04;;;;;;;9.52;6.45;;;17.60;99.90;;;;;;5050889;28;20057;-52
2022/05/18 05:20:30;;;;;;;7.95;6.30;;;17.80;99.90;;;;;;5075757;22;20068;-45
2022/05/18 05:22:55;;;;;;;7.93;6.65;;;17.90;99.90;;;;;;5087234;28;20052;-45
2022/05/18 05:25:21;;;;;;;8.60;6.47;;;17.90;99.90;;;;;;5071641;28;20020;-45
2022/05/18 05:27:46;;;;;;;8.40;5.53;;;17.80;99.90;;;;;;5071791;28;20033;-45
2022/05/18 05:30:12;;;;;;;8.63;5.85;;;17.80;99.90;;;;;;5071603;28;20028;-47
2022/05/18 05:32:38;;;;;;;9.77;6.22;;;17.90;99.90;;;;;;5071665;28;20031;-45
2022/05/18 05:35:06;;;;;;;9.35;6.70;;;18.10;99.90;;;;;;5071400;28;20052;-44
2022/05/18 05:37:32;;;;;;;10.27;5.70;;;18.20;99.90;;;;;;5070991;28;20032;-45
2022/05/18 05:39:57;;;;;;;8.90;5.43;;;18.30;99.90;;;;;;5071493;28;20035;-45
2022/05/18 05:42:24;;;;;;;8.70;6.78;;;18.30;99.90;;;;;;5071480;28;20028;-44
2022/05/18 05:44:49;;;;;;;7.18;6.38;;;18.30;99.90;;;;;;5071569;28;20100;-45
2022/05/18 05:47:15;;;;;;;8.27;6.55;;;18.30;99.90;;;;;;5071154;28;20078;-44
2022/05/18 05:49:42;;;;;;;7.53;5.57;;;18.30;99.90;;;;;;5071859;28;20032;-46
2022/05/18 05:52:08;;;;;;;8.05;7.28;;;18.30;99.90;;;;;;5071444;28;20048;-47
2022/05/18 05:54:34;;;;;;;9.23;6.22;;;18.60;99.90;;;;;;5071627;28;20488;-47
2022/05/18 05:57:03;;;;;;;11.05;6.68;;;18.90;99.90;;;;;;5070026;28;20036;-44
2022/05/18 05:59:29;;;;;;;14.43;7.40;;;19.00;99.90;;;;;;5071477;28;20025;-46
2022/05/18 06:01:58;;;;;;;9.93;5.80;;;18.90;99.90;;;;;;5071615;28;20352;-45
2022/05/18 06:04:24;;;;;;;10.10;6.90;;;19.00;99.90;;;;;;5071403;28;20093;-47
2022/05/18 06:06:49;;;;;;;10.60;6.75;;;19.10;99.90;;;;;;5071204;28;20029;-55
2022/05/18 06:09:15;;;;;;;12.57;6.75;;;19.10;99.90;;;;;;5071382;28;20028;-46
2022/05/18 06:11:40;;;;;;;10.02;5.97;;;19.10;99.90;;;;;;5071296;28;20158;-49
2022/05/18 06:14:06;;;;;;;12.02;6.45;;;19.20;99.90;;;;;;5071456;28;20024;-47
2022/05/18 06:16:31;;;;;;;7.63;6.35;;;19.30;99.90;;;;;;5073829;28;20025;-47
2022/05/18 06:18:59;;;;;;;8.65;5.65;;;19.60;99.90;;;;;;5075474;28;20031;-48
2022/05/18 06:21:25;;;;;;;8.98;6.30;;;19.60;99.90;;;;;;5075014;28;20033;-47
2022/05/18 06:23:50;;;;;;;11.45;5.95;;;19.60;99.90;;;;;;5075207;28;20494;-50
2022/05/18 06:26:16;;;;;;;9.57;6.47;;;19.60;99.90;;;;;;5073422;28;20396;-46
2022/05/18 06:28:41;;;;;;;9.23;7.03;;;19.70;99.90;;;;;;5075005;28;20031;-46
2022/05/18 06:31:07;;;;;;;8.50;6.15;;;19.80;99.90;;;;;;5074607;28;20500;-48
2022/05/18 06:33:34;;;;;;;18.75;7.65;;;19.80;99.90;;;;;;5074071;28;20503;-46
2022/05/18 06:36:00;;;;;;;12.30;6.15;;;19.80;99.90;;;;;;5074750;28;20044;-48
2022/05/18 06:38:26;;;;;;;12.45;6.15;;;19.80;99.90;;;;;;5074316;28;20063;-46
2022/05/18 06:43:35;;;;;;;9.57;5.75;;;20.00;99.90;;;;;;5072991;28;20112;-47
2022/05/18 06:46:01;;;;;;;12.07;6.00;;;20.10;99.90;;;;;;5061629;28;20052;-47
2022/05/18 06:48:28;;;;;;;12.98;5.95;;;20.20;99.90;;;;;;5056089;28;20186;-49
2022/05/18 06:50:53;;;;;;;8.60;6.25;;;20.30;99.90;;;;;;5075055;28;20028;-45
2022/05/18 06:53:19;;;;;;;13.00;6.53;;;20.60;99.90;;;;;;5058819;28;20408;-48
2022/05/18 06:55:44;;;;;;;13.27;5.40;;;20.80;99.90;;;;;;5074184;28;20016;-47
2022/05/18 06:58:10;;;;;;;13.50;5.60;;;21.10;99.90;;;;;;5065277;28;20032;-46
2022/05/18 07:00:35;;;;;;;10.80;5.32;;;21.40;99.90;;;;;;5054043;28;20021;-46
2022/05/18 07:03:01;;;;;;;14.75;5.80;;;21.70;99.90;;;;;;5054278;28;20029;-48
2022/05/18 07:05:27;;;;;;;10.93;5.30;;;22.00;99.90;;;;;;5055860;28;20037;-49
2022/05/18 07:07:52;;;;;;;11.13;5.05;;;22.10;99.90;;;;;;5055837;28;20175;-48
2022/05/18 07:10:18;;;;;;;12.43;4.93;;;22.20;99.90;;;;;;5053989;28;20488;-47
2022/05/18 07:12:43;;;;;;;11.05;5.47;;;22.30;99.90;;;;;;5054466;28;20028;-47
2022/05/18 07:15:09;;;;;;;6.45;4.55;;;22.40;99.90;;;;;;5054410;28;20103;-48
2022/05/18 07:17:35;;;;;;;7.30;4.28;;;22.40;99.90;;;;;;5055651;28;20033;-48
2022/05/18 07:20:02;;;;;;;8.13;4.07;;;22.40;99.90;;;;;;5053029;28;20028;-49
2022/05/18 07:22:28;;;;;;;7.30;4.07;;;22.30;99.90;;;;;;5053677;28;20020;-48
2022/05/18 07:24:53;;;;;;;7.43;5.00;;;22.30;99.90;;;;;;5054400;28;20472;-49
2022/05/18 07:27:19;;;;;;;5.78;3.97;;;22.30;99.90;;;;;;5058902;28;20054;-48
2022/05/18 07:29:44;;;;;;;6.55;4.07;;;22.40;99.90;;;;;;5068579;28;20037;-49
2022/05/18 07:32:12;;;;;;;7.05;4.28;;;22.70;99.90;;;;;;5069085;28;20031;-49
2022/05/18 07:34:39;;;;;;;8.30;3.70;;;23.00;99.90;;;;;;5062398;28;20024;-47
2022/05/18 07:37:05;;;;;;;4.93;3.80;;;23.40;99.80;;;;;;5072976;28;20450;-49
2022/05/18 07:39:31;;;;;;;8.25;4.05;;;23.80;99.50;;;;;;5073883;28;20024;-46
2022/05/18 07:42:01;;;;;;;3.20;2.90;;;24.30;97.40;;;;;;5072123;28;20162;-52
2022/05/18 07:44:27;;;;;;;3.90;2.83;;;24.80;96.50;;;;;;5062696;28;20400;-47
2022/05/18 07:46:54;;;;;;;6.25;2.40;;;25.50;95.10;;;;;;5056883;28;20451;-44
2022/05/18 07:49:19;;;;;;;7.65;2.92;;;26.20;93.50;;;;;;5071211;28;20029;-45
2022/05/18 07:51:45;;;;;;;3.95;2.40;;;26.80;91.70;;;;;;5068410;28;20423;-47
2022/05/18 07:54:12;;;;;;;7.82;2.67;;;27.60;90.50;;;;;;5068659;28;20047;-47
2022/05/18 07:56:38;;;;;;;4.65;2.97;;;28.40;89.80;;;;;;5057852;28;20056;-49
2022/05/18 07:59:05;;;;;;;7.00;2.60;;;29.50;85.90;;;;;;5054081;28;20036;-49
2022/05/18 08:01:31;;;;;;;4.85;2.33;;;30.20;83.20;;;;;;5073022;28;20392;-47
2022/05/18 08:03:57;;;;;;;4.57;2.40;;;30.70;80.50;;;;;;5073701;28;20024;-47
2022/05/18 08:06:22;;;;;;;3.25;2.25;;;31.30;77.30;;;;;;5072234;28;20062;-47
2022/05/18 08:08:48;;;;;;;2.38;2.10;;;32.20;75.30;;;;;;5072126;28;20024;-48
2022/05/18 08:16:42;;;;;;;3.10;2.30;;;32.80;70.20;;;;;;5052381;28;20044;-48
2022/05/18 08:19:12;;;;;;;4.65;2.38;;;33.30;68.70;;;;;;5052275;28;20424;-48
2022/05/18 08:21:37;;;;;;;4.10;2.03;;;33.70;67.20;;;;;;5052387;28;20488;-48
2022/05/18 08:24:05;;;;;;;4.57;2.33;;;34.00;66.70;;;;;;5052865;28;20033;-48
2022/05/18 08:26:31;;;;;;;6.18;2.55;;;34.00;65.20;;;;;;5052463;28;20029;-51
2022/05/18 08:28:57;;;;;;;3.13;2.08;;;34.10;65.10;;;;;;5052140;28;20025;-48
2022/05/18 08:31:23;;;;;;;2.63;2.30;;;34.20;63.90;;;;;;5052415;28;20074;-47
2022/05/18 08:33:49;;;;;;;5.75;2.25;;;33.70;63.80;;;;;;5052277;28;20073;-45
2022/05/18 08:36:17;;;;;;;3.45;1.92;;;33.20;64.70;;;;;;5052183;28;20382;-48
2022/05/18 08:38:43;;;;;;;4.07;2.10;;;32.80;65.00;;;;;;5051278;28;20029;-46
2022/05/18 08:41:17;;;;;;;2.15;1.95;;;32.20;65.10;;;;;;5052128;28;20025;-48
2022/05/18 08:43:45;;;;;;;;;;;32.10;66.20;;;;;;5051076;28;20017;-48
2022/05/18 08:46:18;;;;;;;4.32;2.22;;;31.80;66.00;;;;;;5052198;28;19915;-46
2022/05/18 08:48:53;;;;;;;6.32;2.35;;;31.30;66.40;;;;;;5061515;28;20025;-48
2022/05/18 08:51:35;;;;;;;4.30;2.28;;;30.80;67.60;;;;;;5070825;28;20036;-50
2022/05/18 08:54:30;;;;;;;7.47;2.13;;;30.60;68.20;;;;;;5072323;28;20029;-48
2022/05/18 08:56:58;;;;;;;4.78;2.20;;;30.30;68.10;;;;;;5071812;28;20107;-48
2022/05/18 08:59:33;;;;;;;2.63;2.20;;;30.20;69.70;;;;;;5072377;28;20044;-47
2022/05/18 09:02:02;;;;;;;4.82;2.63;;;29.80;69.20;;;;;;5072244;28;20096;-48
2022/05/18 09:04:46;;;;;;;3.38;2.40;;;29.80;70.80;;;;;;5072098;28;20630;-48
2022/05/18 09:07:18;;;;;;;4.93;2.77;;;29.20;70.40;;;;;;5071683;28;20218;-47
2022/05/18 09:12:37;;;;;;;5.70;2.88;;;28.60;73.10;;;;;;5071765;28;20031;-47
2022/05/18 09:15:04;;;;;;;4.45;2.78;;;28.90;72.50;;;;;;5072017;28;20377;-48
2022/05/18 09:17:43;;;;;;;4.47;2.63;;;28.80;72.90;;;;;;5072004;28;20032;-47
2022/05/18 09:20:24;;;;;;;3.22;2.45;;;28.90;73.70;;;;;;5071528;28;20054;-51
2022/05/18 09:23:27;;;;;;;6.07;2.90;;;28.60;73.70;;;;;;5071843;28;20021;-49
2022/05/18 09:26:11;;;;;;;4.18;2.53;;;28.30;73.70;;;;;;5071201;28;20016;-49
2022/05/18 09:28:55;;;;;;;6.53;2.78;;;28.20;74.40;;;;;;5063992;28;20493;-46
2022/05/18 09:31:40;;;;;;;7.00;2.40;;;28.40;74.20;;;;;;5068481;28;20021;-48
2022/05/18 09:34:25;;;;;;;4.93;2.25;;;28.40;74.00;;;;;;5065443;28;20045;-48
2022/05/18 09:37:06;;;;;;;4.55;2.10;;;28.90;73.00;;;;;;5067463;28;20483;-49
2022/05/18 09:39:36;;;;;;;2.70;2.50;;;29.10;71.40;;;;;;5069476;28;20025;-44
2022/05/18 09:42:08;;;;;;;4.03;2.90;;;29.40;71.50;;;;;;5071320;28;20071;-44
2022/05/18 09:44:57;;;;;;;6.13;2.10;;;29.50;70.40;;;;;;5062568;28;20033;-45
2022/05/18 09:47:26;;;;;;;3.15;2.17;;;29.50;71.80;;;;;;5057160;28;20111;-48
2022/05/18 09:49:54;;;;;;;7.28;2.47;;;29.60;71.20;;;;;;5052886;28;20037;-45
2022/05/18 09:52:24;;;;;;;2.80;2.20;;;29.70;70.80;;;;;;5055199;28;20071;-49
2022/05/18 09:54:53;;;;;;;2.15;2.05;;;29.60;68.80;;;;;;5055411;28;20484;-44
2022/05/18 09:57:40;;;;;;;5.75;2.47;;;29.60;69.30;;;;;;5054729;28;20040;-46
2022/05/18 10:00:19;;;;;;;4.30;2.40;;;29.70;68.50;;;;;;5056381;28;20035;-44
2022/05/18 10:08:37;;;;;;;;;;;29.70;68.80;;;;;;5032947;28;20514;-47
2022/05/18 10:11:09;;;;;;;3.70;2.33;;;29.40;69.20;;;;;;5032554;28;20319;-47
2022/05/18 10:13:40;;;;;;;6.22;2.33;;;29.10;69.90;;;;;;5043825;28;20404;-47
2022/05/18 10:16:19;;;;;;;3.05;2.13;;;28.70;71.20;;;;;;5054797;28;20417;-48
2022/05/18 10:18:53;;;;;;;5.25;2.75;;;28.50;71.70;;;;;;5054763;28;20037;-45
2022/05/18 10:21:30;;;;;;;2.78;2.00;;;28.40;71.80;;;;;;5054745;28;20040;-47
2022/05/18 10:24:01;;;;;;;7.68;2.22;;;28.50;71.40;;;;;;5054766;28;20090;-45
2022/05/18 10:26:38;;;;;;;19.98;2.88;;;28.60;71.20;;;;;;5054305;28;20025;-45
2022/05/18 10:29:19;;;;;;;4.53;2.10;;;28.60;71.60;;;;;;5054266;28;20091;-44
2022/05/18 10:32:01;;;;;;;2.83;1.98;;;28.70;71.10;;;;;;5054324;28;20037;-45
2022/05/18 10:34:30;;;;;;;2.40;2.03;;;28.80;70.60;;;;;;5054305;28;20029;-45
2022/05/18 10:37:00;;;;;;;9.15;2.50;;;28.70;71.10;;;;;;5053881;28;20029;-45
2022/05/18 10:39:42;;;;;;;24.45;19.90;;;28.60;71.30;;;;;;5054638;28;20031;-49
2022/05/18 10:42:20;;;;;;;6.10;2.72;;;28.60;71.80;;;;;;5054594;28;20024;-45
2022/05/18 10:44:46;;;;;;;6.47;2.30;;;28.50;71.40;;;;;;5054343;28;20060;-46
2022/05/18 10:47:24;;;;;;;7.03;2.00;;;28.30;70.80;;;;;;5053919;28;20060;-45
2022/05/18 10:49:50;;;;;;;5.60;2.20;;;28.20;71.10;;;;;;5054356;28;20408;-47
2022/05/18 10:52:28;;;;;;;5.85;1.88;;;28.20;70.90;;;;;;5054325;28;20051;-45
2022/05/18 10:55:16;;;;;;;3.25;2.25;;;28.20;71.10;;;;;;5053037;28;20425;-49
2022/05/18 10:57:56;;;;;;;3.00;2.10;;;28.30;71.10;;;;;;5053367;28;20048;-47
2022/05/18 11:00:27;;;;;;;2.67;2.17;;;28.40;70.40;;;;;;5053994;28;20477;-45
2022/05/18 11:03:12;;;;;;;5.22;2.10;;;28.40;71.00;;;;;;5052003;28;20033;-47
2022/05/18 11:05:43;;;;;;;;;;;28.40;70.90;;;;;;5054091;28;20071;-48
2022/05/18 11:08:14;;;;;;;4.10;2.17;;;28.30;70.60;;;;;;5053292;28;20372;-45
2022/05/18 11:11:11;;;;;;;2.88;1.98;;;28.30;70.00;;;;;;5053697;28;20116;-44
2022/05/18 11:14:10;;;;;;;1.75;1.58;;;28.20;70.40;;;;;;5053710;28;20028;-44
2022/05/18 11:17:21;;;;;;;2.88;1.70;;;28.20;69.60;;;;;;5052124;28;20029;-45
2022/05/18 11:19:50;;;;;;;3.67;1.92;;;28.20;70.30;;;;;;5053172;28;20039;-44
2022/05/18 11:22:39;;;;;;;8.27;2.42;;;28.30;70.00;;;;;;5072220;22;20037;-47
2022/05/18 11:25:29;;;;;;;3.13;1.67;;;28.40;69.60;;;;;;5053379;28;20025;-51
2022/05/18 11:28:28;;;;;;;5.50;1.70;;;28.40;68.50;;;;;;5051546;28;20404;-45
2022/05/18 11:31:29;;;;;;;1.63;1.50;;;28.30;68.20;;;;;;5052458;28;20182;-44
2022/05/18 11:34:37;;;;;;;2.60;1.70;;;28.30;69.30;;;;;;5053183;28;20025;-47
2022/05/18 11:37:21;;;;;;;2.05;1.40;;;28.20;68.40;;;;;;5052677;28;20039;-42
2022/05/18 11:40:14;;;;;;;0.90;0.90;;;28.10;68.30;;;;;;5052916;28;20028;-46
2022/05/18 11:43:01;;;;;;;5.32;1.73;;;28.10;67.50;;;;;;5053057;28;20024;-42
2022/05/18 11:45:49;;;;;;;1.88;1.63;;;28.10;68.20;;;;;;5053047;28;20064;-47
2022/05/18 11:48:32;;;;;;;1.73;1.33;;;28.00;67.50;;;;;;5052607;28;20120;-50
2022/05/18 11:51:12;;;;;;;3.03;1.45;;;28.00;67.30;;;;;;5052786;28;20101;-46
2022/05/18 11:54:02;;;;;;;1.60;1.50;;;28.00;68.90;;;;;;5052777;28;20053;-49
2022/05/18 11:56:48;;;;;;;1.52;1.20;;;28.00;68.00;;;;;;5052461;28;20070;-46
2022/05/18 12:02:13;;;;;;;2.83;1.67;;;28.30;67.60;;;;;;5052625;28;20024;-41
2022/05/18 12:04:44;;;;;;;2.28;1.63;;;28.20;67.40;;;;;;5052487;28;20021;-47
2022/05/18 12:07:31;;;;;;;1.60;1.50;;;28.20;68.00;;;;;;5052180;28;20095;-46
2022/05/18 12:10:14;;;;;;;6.05;1.50;;;28.30;68.90;;;;;;5052376;28;20025;-43
2022/05/18 12:12:53;;;;;;;3.80;1.50;;;28.50;67.10;;;;;;5051634;28;20032;-46
2022/05/18 12:15:41;;;;;;;3.42;1.30;;;28.50;66.30;;;;;;5051025;28;20036;-45
2022/05/18 12:18:15;;;;;;;2.45;1.38;;;28.50;67.30;;;;;;5051976;28;20025;-46
2022/05/18 12:20:46;;;;;;;3.38;1.70;;;28.50;66.80;;;;;;5051760;28;20024;-48
2022/05/18 12:23:16;;;;;;;3.28;1.33;;;28.50;65.80;;;;;;5052268;28;20061;-46
2022/05/18 12:25:43;;;;;;;4.75;1.83;;;28.50;66.90;;;;;;5050966;28;20504;-44
2022/05/18 12:28:11;;;;;;;6.35;1.58;;;28.50;66.60;;;;;;5051798;28;20033;-45
2022/05/18 12:30:41;;;;;;;2.80;1.48;;;28.60;67.50;;;;;;5051900;28;20025;-45
2022/05/18 12:33:08;;;;;;;4.60;1.45;;;28.60;65.20;;;;;;5052034;28;20082;-44
2022/05/18 12:35:46;;;;;;;1.98;1.60;;;28.70;64.50;;;;;;5051952;28;20108;-46
2022/05/18 12:38:24;;;;;;;1.63;0.98;;;28.60;64.30;;;;;;5052293;28;20029;-47
2022/05/18 12:41:02;;;;;;;4.35;1.75;;;28.50;64.70;;;;;;5052654;28;20017;-41
2022/05/18 12:43:44;;;;;;;29.67;25.00;;;28.60;65.70;;;;;;5052639;28;20104;-45
2022/05/18 12:46:15;;;;;;;16.38;12.23;;;28.60;66.00;;;;;;5052510;28;20027;-45
2022/05/18 12:48:50;;;;;;;2.53;2.05;;;28.70;66.00;;;;;;5051812;28;20025;-42
2022/05/18 12:51:27;;;;;;;1.73;1.58;;;28.80;65.80;;;;;;5052660;28;20373;-43
2022/05/18 12:53:56;;;;;;;2.63;1.27;;;28.90;65.00;;;;;;5051180;28;20033;-45
2022/05/18 12:56:37;;;;;;;3.40;1.83;;;28.90;64.60;;;;;;5051793;28;20111;-47
2022/05/18 12:59:16;;;;;;;2.40;1.27;;;29.00;64.80;;;;;;5049580;28;20214;-47
2022/05/18 13:01:47;;;;;;;2.95;1.52;;;29.00;64.80;;;;;;5049634;28;20024;-46
2022/05/18 13:04:16;;;;;;;2.67;1.65;;;28.90;63.90;;;;;;5051266;28;20013;-50
2022/05/18 13:06:50;;;;;;;1.70;1.27;;;28.80;64.40;;;;;;5050058;28;20394;-48
2022/05/18 13:09:25;;;;;;;1.92;1.35;;;28.70;63.60;;;;;;5051591;28;20025;-49
2022/05/18 13:12:15;;;;;;;1.20;1.20;;;28.70;63.80;;;;;;5051195;28;20554;-45
2022/05/18 13:15:19;;;;;;;1.38;0.98;;;28.70;62.80;;;;;;5051761;28;20112;-45
2022/05/18 13:17:54;;;;;;;1.80;1.00;;;28.60;62.50;;;;;;5068775;28;20062;-45
2022/05/18 13:20:26;;;;;;;1.20;1.10;;;28.50;63.40;;;;;;5068678;28;20031;-44
2022/05/18 13:23:08;;;;;;;2.05;1.10;;;28.60;66.20;;;;;;5059176;28;20065;-42
2022/05/18 13:25:38;;;;;;;2.83;1.35;;;28.60;65.60;;;;;;5054186;28;20400;-46